• Join FlightAware (Why Join?)
  • Login
  • US Flag 
04:14AM EDT


 

Airport Tracker/Info


-or-


 

Live Flight TrackerFlight Track Log ✈ SKW5619 ✈ 30-May-2013 ✈ KDEN - KHLN

Flight Track Log - Related Links

Times and Time Zones

All times are in EDT time to prevent confusion due to time zone crossing. See the SKW5619 flight status page for this flight to view local times or setup timezone preferences in your user account.

Time Position Orientation Groundspeed Altitude Reporting Facility
EDT Latitude Longitude Course Direction KTS MPH feet Rate Location/Type
11:06PM 40.2533 -105.0443 324° Northwest  Level Estimated
11:07PM 40.3510 -105.1378 324° Northwest  Level Estimated
11:08PM 40.4487 -105.2315 324° Northwest  Level Estimated
11:09PM 40.5462 -105.3255 324° Northwest  Level Estimated
11:10PM 40.6437 -105.4198 324° Northwest  Level Estimated
11:11PM 40.7412 -105.5143 324° Northwest  Level Estimated
11:12PM 40.8385 -105.6092 324° Northwest  Level Estimated
11:13PM 40.9358 -105.7043 324° Northwest  Level Estimated
11:14PM 41.0330 -105.7997 323° Northwest  Level Estimated
11:15PM 41.1301 -105.8953 323° Northwest  Level Estimated
11:16PM 41.2271 -105.9913 323° Northwest  Level Estimated
11:17PM 41.3241 -106.0875 323° Northwest  Level Estimated
11:18PM 41.4209 -106.1841 323° Northwest  Level Estimated
11:19PM 41.5177 -106.2809 323° Northwest  Level Estimated
11:20PM 41.6144 -106.3780 323° Northwest  Level Estimated
11:21PM 41.7110 -106.4754 323° Northwest  Level Estimated
11:22PM 41.8076 -106.5731 323° Northwest  Level Estimated
11:23PM 41.9040 -106.6710 323° Northwest  Level Estimated
11:24PM 42.0004 -106.7693 323° Northwest  Level Estimated
11:25PM 42.0967 -106.8679 323° Northwest  Level Estimated
11:26PM 42.1929 -106.9668 323° Northwest  Level Estimated
11:27PM 42.2890 -107.0660 323° Northwest  Level Estimated
11:28PM 42.3851 -107.1654 323° Northwest  Level Estimated
11:29PM 42.4810 -107.2652 323° Northwest  Level Estimated
11:30PM 42.5769 -107.3653 322° Northwest  Level Estimated
11:31PM 42.6726 -107.4657 322° Northwest  Level Estimated
11:32PM 42.7683 -107.5664 322° Northwest  Level Estimated
11:33PM 42.8639 -107.6674 322° Northwest  Level Estimated
11:34PM 42.9594 -107.7688 322° Northwest  Level Estimated
11:35PM 43.0549 -107.8704 322° Northwest  Level Estimated
11:36PM 43.1502 -107.9724 322° Northwest  Level Estimated
11:37PM 43.2454 -108.0747 322° Northwest  Level Estimated
11:38PM 43.3406 -108.1773 322° Northwest  Level Estimated
11:39PM 43.4356 -108.2802 322° Northwest  Level Estimated
11:40PM 43.5306 -108.3835 322° Northwest  Level Estimated
11:41PM 43.6255 -108.4871 322° Northwest  Level Estimated
11:42PM 43.7202 -108.5910 322° Northwest  Level Estimated
11:43PM 43.8149 -108.6952 322° Northwest  Level Estimated
11:44PM 43.9095 -108.7998 321° Northwest  Level Estimated
11:45PM 44.0040 -108.9047 321° Northwest  Level Estimated
11:46PM 44.0984 -109.0099 321° Northwest  Level Estimated
11:47PM 44.1927 -109.1155 321° Northwest  Level Estimated
11:48PM 44.2869 -109.2214 321° Northwest  Level Estimated
11:49PM 44.3810 -109.3276 321° Northwest  Level Estimated
11:50PM 44.4750 -109.4342 321° Northwest  Level Estimated
11:51PM 44.5689 -109.5411 321° Northwest  Level Estimated
11:52PM 44.6627 -109.6484 321° Northwest  Level Estimated
11:53PM 44.7564 -109.7561 321° Northwest  Level Estimated
11:54PM 44.8500 -109.8640 321° Northwest  Level Estimated
11:55PM 44.9435 -109.9724 321° Northwest  Level Estimated
11:56PM 45.0369 -110.0810 321° Northwest  Level Estimated
11:57PM 45.1302 -110.1901 321° Northwest  Level Estimated
11:58PM 45.2234 -110.2995 320° Northwest  Level Estimated
11:59PM 45.3164 -110.4092 320° Northwest  Level Estimated
12:00AM 45.4094 -110.5193 320° Northwest  Level Estimated
12:01AM 45.5023 -110.6298 320° Northwest  Level Estimated
12:02AM 45.5951 -110.7406 320° Northwest  Level Estimated
12:03AM 45.6877 -110.8518 320° Northwest  Level Estimated
12:04AM 45.7803 -110.9634 320° Northwest  Level Estimated
12:05AM 45.8727 -111.0754 320° Northwest  Level Estimated
12:06AM 45.9650 -111.1877 320° Northwest  Level Estimated
12:07AM 46.0573 -111.3004 320° Northwest  Level Estimated
12:08AM 46.1494 -111.4134 320° Northwest  Level Estimated
12:09AM 46.2414 -111.5269 320° Northwest  Level Estimated
12:10AM 46.3332 -111.6407 319° Northwest  Level Estimated
12:11AM 46.4250 -111.7549 319° Northwest  Level Estimated
12:12AM 46.5167 -111.8695 319° Northwest  Level Estimated
12:13AM 46.6068 -111.9827 319° Northwest  Level Estimated
12:14AM 46.6068 -111.9827 180° South  Level Estimated
12:15AM 46.6068 -111.9827 180° South  Level Estimated
12:16AM 46.6068 -111.9827 180° South  Level Estimated
12:17AM 46.6068 -111.9827 180° South  Level Estimated
12:18AM 46.6068 -111.9827 180° South  Level Estimated
12:19AM 46.6068 -111.9827 180° South  Level Estimated
12:20AM 46.6068 -111.9827 180° South  Level Estimated
12:21AM 46.6068 -111.9827 180° South  Level Estimated
12:22AM 46.6068 -111.9827 180° South  Level Estimated
12:23AM 46.6068 -111.9827 180° South  Level Estimated
12:24AM 46.6068 -111.9827 180° South  Level Estimated
12:25AM 46.6068 -111.9827 180° South  Level Estimated
12:26AM 46.6068 -111.9827 180° South  Level Estimated
12:27AM 46.6068 -111.9827 180° South  Level Estimated
12:28AM 46.6068 -111.9827 180° South  Level Estimated
12:29AM 46.6068 -111.9827 180° South  Level Estimated